sensor_id;sensor_type;location;lat;lon;timestamp;P1;durP1;ratioP1;P2;durP2;ratioP2
59468;SDS011;45277;52.768;18.262;2023-11-18T00:01:21;24.52;;;14.45;;
59468;SDS011;45277;52.768;18.262;2023-11-18T00:02:53;37.90;;;16.13;;
59468;SDS011;45277;52.768;18.262;2023-11-18T00:04:24;33.78;;;16.33;;
59468;SDS011;45277;52.768;18.262;2023-11-18T00:05:56;28.05;;;15.00;;
59468;SDS011;45277;52.768;18.262;2023-11-18T00:07:27;20.23;;;11.50;;
59468;SDS011;45277;52.768;18.262;2023-11-18T00:09:00;25.35;;;13.25;;
59468;SDS011;45277;52.768;18.262;2023-11-18T00:10:31;29.85;;;13.52;;
59468;SDS011;45277;52.768;18.262;2023-11-18T00:12:02;23.48;;;12.27;;
59468;SDS011;45277;52.768;18.262;2023-11-18T00:13:35;23.90;;;12.18;;
59468;SDS011;45277;52.768;18.262;2023-11-18T00:15:06;22.48;;;11.80;;
59468;SDS011;45277;52.768;18.262;2023-11-18T00:16:39;20.95;;;12.93;;
59468;SDS011;45277;52.768;18.262;2023-11-18T00:18:11;18.15;;;11.13;;
59468;SDS011;45277;52.768;18.262;2023-11-18T00:19:43;22.10;;;12.32;;
59468;SDS011;45277;52.768;18.262;2023-11-18T00:21:15;19.27;;;11.27;;
59468;SDS011;45277;52.768;18.262;2023-11-18T00:22:46;21.85;;;11.65;;
59468;SDS011;45277;52.768;18.262;2023-11-18T00:24:17;20.23;;;11.55;;
59468;SDS011;45277;52.768;18.262;2023-11-18T00:25:49;18.23;;;10.63;;
59468;SDS011;45277;52.768;18.262;2023-11-18T00:27:20;18.30;;;10.63;;
59468;SDS011;45277;52.768;18.262;2023-11-18T00:28:55;18.15;;;10.77;;
59468;SDS011;45277;52.768;18.262;2023-11-18T00:30:26;17.67;;;10.27;;
59468;SDS011;45277;52.768;18.262;2023-11-18T00:31:59;19.33;;;11.38;;
59468;SDS011;45277;52.768;18.262;2023-11-18T00:33:34;21.52;;;11.38;;
59468;SDS011;45277;52.768;18.262;2023-11-18T00:35:06;21.92;;;12.20;;
59468;SDS011;45277;52.768;18.262;2023-11-18T00:36:38;20.35;;;11.80;;
59468;SDS011;45277;52.768;18.262;2023-11-18T00:38:09;19.65;;;11.45;;
59468;SDS011;45277;52.768;18.262;2023-11-18T00:39:40;22.25;;;11.90;;
59468;SDS011;45277;52.768;18.262;2023-11-18T00:41:12;19.25;;;11.30;;
59468;SDS011;45277;52.768;18.262;2023-11-18T00:42:44;21.75;;;12.35;;
59468;SDS011;45277;52.768;18.262;2023-11-18T00:44:18;23.55;;;13.23;;
59468;SDS011;45277;52.768;18.262;2023-11-18T00:45:50;21.10;;;12.32;;
59468;SDS011;45277;52.768;18.262;2023-11-18T00:47:22;23.30;;;13.15;;
59468;SDS011;45277;52.768;18.262;2023-11-18T00:48:53;22.70;;;12.73;;
59468;SDS011;45277;52.768;18.262;2023-11-18T00:50:25;21.90;;;11.80;;
59468;SDS011;45277;52.768;18.262;2023-11-18T00:51:56;21.58;;;11.80;;
59468;SDS011;45277;52.768;18.262;2023-11-18T00:53:29;19.25;;;11.15;;
59468;SDS011;45277;52.768;18.262;2023-11-18T00:55:00;18.95;;;10.75;;
59468;SDS011;45277;52.768;18.262;2023-11-18T00:56:32;21.90;;;13.23;;
59468;SDS011;45277;52.768;18.262;2023-11-18T00:58:03;21.20;;;12.43;;
59468;SDS011;45277;52.768;18.262;2023-11-18T00:59:36;24.55;;;12.40;;
59468;SDS011;45277;52.768;18.262;2023-11-18T01:01:11;23.77;;;13.65;;
59468;SDS011;45277;52.768;18.262;2023-11-18T01:02:43;25.15;;;14.18;;
59468;SDS011;45277;52.768;18.262;2023-11-18T01:04:15;26.50;;;14.27;;
59468;SDS011;45277;52.768;18.262;2023-11-18T01:05:46;26.48;;;14.35;;
59468;SDS011;45277;52.768;18.262;2023-11-18T01:07:18;23.67;;;13.35;;
59468;SDS011;45277;52.768;18.262;2023-11-18T01:08:49;28.33;;;14.63;;
59468;SDS011;45277;52.768;18.262;2023-11-18T01:10:21;27.15;;;14.30;;
59468;SDS011;45277;52.768;18.262;2023-11-18T01:11:52;27.30;;;15.00;;
59468;SDS011;45277;52.768;18.262;2023-11-18T01:13:24;23.00;;;14.30;;
59468;SDS011;45277;52.768;18.262;2023-11-18T01:14:57;19.67;;;12.45;;
59468;SDS011;45277;52.768;18.262;2023-11-18T01:16:28;23.52;;;13.85;;
59468;SDS011;45277;52.768;18.262;2023-11-18T01:18:00;25.60;;;14.93;;
59468;SDS011;45277;52.768;18.262;2023-11-18T01:19:31;29.13;;;15.73;;
59468;SDS011;45277;52.768;18.262;2023-11-18T01:21:04;27.80;;;15.60;;
59468;SDS011;45277;52.768;18.262;2023-11-18T01:22:39;25.85;;;15.07;;
59468;SDS011;45277;52.768;18.262;2023-11-18T01:24:12;30.20;;;15.50;;
59468;SDS011;45277;52.768;18.262;2023-11-18T01:25:44;27.75;;;15.40;;
59468;SDS011;45277;52.768;18.262;2023-11-18T01:27:16;27.02;;;14.48;;
59468;SDS011;45277;52.768;18.262;2023-11-18T01:28:49;24.52;;;14.35;;
59468;SDS011;45277;52.768;18.262;2023-11-18T01:30:21;25.52;;;13.77;;
59468;SDS011;45277;52.768;18.262;2023-11-18T01:31:54;25.00;;;14.88;;
59468;SDS011;45277;52.768;18.262;2023-11-18T01:33:26;25.80;;;14.77;;
59468;SDS011;45277;52.768;18.262;2023-11-18T01:34:58;27.95;;;13.90;;
59468;SDS011;45277;52.768;18.262;2023-11-18T01:36:30;25.27;;;13.85;;
59468;SDS011;45277;52.768;18.262;2023-11-18T01:38:01;24.27;;;13.75;;
59468;SDS011;45277;52.768;18.262;2023-11-18T01:39:33;26.58;;;14.82;;
59468;SDS011;45277;52.768;18.262;2023-11-18T01:41:05;25.00;;;13.57;;
59468;SDS011;45277;52.768;18.262;2023-11-18T01:42:37;22.65;;;13.05;;
59468;SDS011;45277;52.768;18.262;2023-11-18T01:44:08;23.60;;;14.05;;
59468;SDS011;45277;52.768;18.262;2023-11-18T01:45:40;23.50;;;13.43;;
59468;SDS011;45277;52.768;18.262;2023-11-18T01:47:11;24.17;;;13.80;;
59468;SDS011;45277;52.768;18.262;2023-11-18T01:48:43;22.25;;;12.43;;
59468;SDS011;45277;52.768;18.262;2023-11-18T01:50:15;21.92;;;13.25;;
59468;SDS011;45277;52.768;18.262;2023-11-18T01:51:48;22.10;;;12.68;;
59468;SDS011;45277;52.768;18.262;2023-11-18T01:53:21;23.98;;;13.25;;
59468;SDS011;45277;52.768;18.262;2023-11-18T01:54:54;20.20;;;12.55;;
59468;SDS011;45277;52.768;18.262;2023-11-18T01:56:27;21.15;;;12.43;;
59468;SDS011;45277;52.768;18.262;2023-11-18T01:57:58;20.50;;;11.55;;
59468;SDS011;45277;52.768;18.262;2023-11-18T01:59:30;20.92;;;12.80;;
59468;SDS011;45277;52.768;18.262;2023-11-18T02:01:04;20.70;;;11.35;;
59468;SDS011;45277;52.768;18.262;2023-11-18T02:02:38;23.05;;;12.05;;
59468;SDS011;45277;52.768;18.262;2023-11-18T02:04:10;19.80;;;12.18;;
59468;SDS011;45277;52.768;18.262;2023-11-18T02:05:43;22.67;;;12.93;;
59468;SDS011;45277;52.768;18.262;2023-11-18T02:07:14;24.13;;;12.95;;
59468;SDS011;45277;52.768;18.262;2023-11-18T02:08:46;25.52;;;13.50;;
59468;SDS011;45277;52.768;18.262;2023-11-18T02:10:18;19.75;;;10.98;;
59468;SDS011;45277;52.768;18.262;2023-11-18T02:12:38;23.65;;;12.52;;
59468;SDS011;45277;52.768;18.262;2023-11-18T02:13:51;26.85;;;13.75;;
59468;SDS011;45277;52.768;18.262;2023-11-18T02:15:24;24.00;;;12.02;;
59468;SDS011;45277;52.768;18.262;2023-11-18T02:16:59;24.02;;;13.05;;
59468;SDS011;45277;52.768;18.262;2023-11-18T02:18:33;21.05;;;11.40;;
59468;SDS011;45277;52.768;18.262;2023-11-18T02:20:06;25.60;;;13.40;;
59468;SDS011;45277;52.768;18.262;2023-11-18T02:21:44;25.52;;;13.45;;
59468;SDS011;45277;52.768;18.262;2023-11-18T02:23:16;19.75;;;11.93;;
59468;SDS011;45277;52.768;18.262;2023-11-18T02:24:47;21.55;;;12.80;;
59468;SDS011;45277;52.768;18.262;2023-11-18T02:26:22;20.88;;;12.13;;
59468;SDS011;45277;52.768;18.262;2023-11-18T02:27:55;20.98;;;12.15;;
59468;SDS011;45277;52.768;18.262;2023-11-18T02:29:27;22.58;;;12.23;;
59468;SDS011;45277;52.768;18.262;2023-11-18T02:31:09;24.75;;;13.38;;
59468;SDS011;45277;52.768;18.262;2023-11-18T02:32:58;24.45;;;13.77;;
59468;SDS011;45277;52.768;18.262;2023-11-18T02:34:35;24.55;;;13.25;;
59468;SDS011;45277;52.768;18.262;2023-11-18T02:36:16;27.23;;;15.02;;
59468;SDS011;45277;52.768;18.262;2023-11-18T02:37:55;26.20;;;13.65;;
59468;SDS011;45277;52.768;18.262;2023-11-18T02:39:34;22.33;;;13.15;;
59468;SDS011;45277;52.768;18.262;2023-11-18T02:41:10;24.13;;;14.25;;
59468;SDS011;45277;52.768;18.262;2023-11-18T02:42:44;25.88;;;14.63;;
59468;SDS011;45277;52.768;18.262;2023-11-18T02:44:18;29.48;;;13.93;;
59468;SDS011;45277;52.768;18.262;2023-11-18T02:45:53;24.88;;;13.00;;
59468;SDS011;45277;52.768;18.262;2023-11-18T02:47:27;27.20;;;13.68;;
59468;SDS011;45277;52.768;18.262;2023-11-18T02:48:59;28.50;;;14.25;;
59468;SDS011;45277;52.768;18.262;2023-11-18T02:50:30;27.13;;;13.23;;
59468;SDS011;45277;52.768;18.262;2023-11-18T02:52:02;29.80;;;14.90;;
59468;SDS011;45277;52.768;18.262;2023-11-18T02:53:34;27.13;;;13.88;;
59468;SDS011;45277;52.768;18.262;2023-11-18T02:55:06;25.17;;;13.65;;
59468;SDS011;45277;52.768;18.262;2023-11-18T02:56:39;26.42;;;13.88;;
59468;SDS011;45277;52.768;18.262;2023-11-18T02:58:10;26.63;;;13.50;;
59468;SDS011;45277;52.768;18.262;2023-11-18T02:59:41;27.13;;;13.38;;
59468;SDS011;45277;52.768;18.262;2023-11-18T03:01:13;29.17;;;13.57;;
59468;SDS011;45277;52.768;18.262;2023-11-18T03:02:44;29.40;;;14.48;;
59468;SDS011;45277;52.768;18.262;2023-11-18T03:04:17;28.95;;;14.40;;
59468;SDS011;45277;52.768;18.262;2023-11-18T03:05:50;28.50;;;13.35;;
59468;SDS011;45277;52.768;18.262;2023-11-18T03:07:21;31.95;;;14.50;;
59468;SDS011;45277;52.768;18.262;2023-11-18T03:08:52;26.02;;;14.48;;
59468;SDS011;45277;52.768;18.262;2023-11-18T03:10:24;27.08;;;12.13;;
59468;SDS011;45277;52.768;18.262;2023-11-18T03:11:56;32.75;;;15.93;;
59468;SDS011;45277;52.768;18.262;2023-11-18T03:13:29;29.33;;;14.63;;
59468;SDS011;45277;52.768;18.262;2023-11-18T03:15:04;23.63;;;12.57;;
59468;SDS011;45277;52.768;18.262;2023-11-18T03:16:39;25.02;;;14.18;;
59468;SDS011;45277;52.768;18.262;2023-11-18T03:18:10;29.23;;;13.82;;
59468;SDS011;45277;52.768;18.262;2023-11-18T03:19:42;26.67;;;13.93;;
59468;SDS011;45277;52.768;18.262;2023-11-18T03:21:14;23.60;;;13.30;;
59468;SDS011;45277;52.768;18.262;2023-11-18T03:22:45;26.52;;;13.38;;
59468;SDS011;45277;52.768;18.262;2023-11-18T03:24:17;32.53;;;16.42;;
59468;SDS011;45277;52.768;18.262;2023-11-18T03:25:49;28.30;;;15.15;;
59468;SDS011;45277;52.768;18.262;2023-11-18T03:27:22;32.33;;;15.65;;
59468;SDS011;45277;52.768;18.262;2023-11-18T03:28:53;33.78;;;16.83;;
59468;SDS011;45277;52.768;18.262;2023-11-18T03:30:25;27.70;;;13.82;;
59468;SDS011;45277;52.768;18.262;2023-11-18T03:31:56;28.25;;;13.82;;
59468;SDS011;45277;52.768;18.262;2023-11-18T03:33:28;29.30;;;13.73;;
59468;SDS011;45277;52.768;18.262;2023-11-18T03:34:59;24.30;;;12.73;;
59468;SDS011;45277;52.768;18.262;2023-11-18T03:36:30;31.60;;;15.07;;
59468;SDS011;45277;52.768;18.262;2023-11-18T03:38:02;29.00;;;14.38;;
59468;SDS011;45277;52.768;18.262;2023-11-18T03:39:34;30.05;;;15.00;;
59468;SDS011;45277;52.768;18.262;2023-11-18T03:41:05;27.90;;;14.40;;
59468;SDS011;45277;52.768;18.262;2023-11-18T03:42:39;29.38;;;14.98;;
59468;SDS011;45277;52.768;18.262;2023-11-18T03:44:16;26.27;;;13.70;;
59468;SDS011;45277;52.768;18.262;2023-11-18T03:45:47;26.48;;;13.55;;
59468;SDS011;45277;52.768;18.262;2023-11-18T03:47:19;28.42;;;14.90;;
59468;SDS011;45277;52.768;18.262;2023-11-18T03:48:54;25.92;;;14.65;;
59468;SDS011;45277;52.768;18.262;2023-11-18T03:50:25;27.55;;;13.95;;
59468;SDS011;45277;52.768;18.262;2023-11-18T03:51:57;26.40;;;13.05;;
59468;SDS011;45277;52.768;18.262;2023-11-18T03:53:28;18.90;;;11.07;;
59468;SDS011;45277;52.768;18.262;2023-11-18T03:55:02;23.20;;;12.05;;
59468;SDS011;45277;52.768;18.262;2023-11-18T03:56:35;23.95;;;12.60;;
59468;SDS011;45277;52.768;18.262;2023-11-18T03:58:06;22.40;;;11.90;;
59468;SDS011;45277;52.768;18.262;2023-11-18T03:59:39;20.30;;;11.40;;
59468;SDS011;45277;52.768;18.262;2023-11-18T04:01:11;22.65;;;12.27;;
59468;SDS011;45277;52.768;18.262;2023-11-18T04:02:51;22.60;;;11.98;;
59468;SDS011;45277;52.768;18.262;2023-11-18T04:04:22;29.90;;;14.65;;
59468;SDS011;45277;52.768;18.262;2023-11-18T04:05:53;23.83;;;14.15;;
59468;SDS011;45277;52.768;18.262;2023-11-18T04:07:25;26.48;;;13.77;;
59468;SDS011;45277;52.768;18.262;2023-11-18T04:08:56;24.17;;;13.32;;
59468;SDS011;45277;52.768;18.262;2023-11-18T04:10:27;26.92;;;14.27;;
59468;SDS011;45277;52.768;18.262;2023-11-18T04:11:59;24.13;;;13.05;;
59468;SDS011;45277;52.768;18.262;2023-11-18T04:13:30;25.77;;;13.73;;
59468;SDS011;45277;52.768;18.262;2023-11-18T04:15:02;23.65;;;12.68;;
59468;SDS011;45277;52.768;18.262;2023-11-18T04:16:35;23.92;;;13.73;;
59468;SDS011;45277;52.768;18.262;2023-11-18T04:18:06;15.80;;;10.30;;
59468;SDS011;45277;52.768;18.262;2023-11-18T04:19:37;21.58;;;12.13;;
59468;SDS011;45277;52.768;18.262;2023-11-18T04:21:09;20.65;;;10.52;;
59468;SDS011;45277;52.768;18.262;2023-11-18T04:22:41;19.88;;;11.00;;
59468;SDS011;45277;52.768;18.262;2023-11-18T04:24:14;20.75;;;12.13;;
59468;SDS011;45277;52.768;18.262;2023-11-18T04:25:45;22.58;;;10.82;;
59468;SDS011;45277;52.768;18.262;2023-11-18T04:27:17;21.63;;;12.05;;
59468;SDS011;45277;52.768;18.262;2023-11-18T04:28:48;21.13;;;12.13;;
59468;SDS011;45277;52.768;18.262;2023-11-18T04:30:20;23.08;;;12.48;;
59468;SDS011;45277;52.768;18.262;2023-11-18T04:31:51;23.63;;;11.88;;
59468;SDS011;45277;52.768;18.262;2023-11-18T04:33:24;20.92;;;11.55;;
59468;SDS011;45277;52.768;18.262;2023-11-18T04:34:55;19.60;;;11.43;;
59468;SDS011;45277;52.768;18.262;2023-11-18T04:36:27;23.60;;;13.73;;
59468;SDS011;45277;52.768;18.262;2023-11-18T04:37:59;20.95;;;12.20;;
59468;SDS011;45277;52.768;18.262;2023-11-18T04:39:34;19.27;;;10.45;;
59468;SDS011;45277;52.768;18.262;2023-11-18T04:41:05;21.30;;;11.45;;
59468;SDS011;45277;52.768;18.262;2023-11-18T04:42:38;24.17;;;12.93;;
59468;SDS011;45277;52.768;18.262;2023-11-18T04:44:10;25.55;;;13.70;;
59468;SDS011;45277;52.768;18.262;2023-11-18T04:45:44;24.02;;;13.45;;
59468;SDS011;45277;52.768;18.262;2023-11-18T04:47:15;22.27;;;12.38;;
59468;SDS011;45277;52.768;18.262;2023-11-18T04:48:48;22.98;;;11.48;;
59468;SDS011;45277;52.768;18.262;2023-11-18T04:50:20;27.60;;;14.30;;
59468;SDS011;45277;52.768;18.262;2023-11-18T04:51:51;24.15;;;13.32;;
59468;SDS011;45277;52.768;18.262;2023-11-18T04:53:22;23.42;;;11.38;;
59468;SDS011;45277;52.768;18.262;2023-11-18T04:54:56;26.67;;;13.88;;
59468;SDS011;45277;52.768;18.262;2023-11-18T04:56:27;27.50;;;14.88;;
59468;SDS011;45277;52.768;18.262;2023-11-18T04:57:58;30.23;;;14.25;;
59468;SDS011;45277;52.768;18.262;2023-11-18T04:59:30;27.95;;;15.02;;
59468;SDS011;45277;52.768;18.262;2023-11-18T05:01:02;26.23;;;13.27;;
59468;SDS011;45277;52.768;18.262;2023-11-18T05:02:33;26.67;;;13.32;;
59468;SDS011;45277;52.768;18.262;2023-11-18T05:04:04;29.63;;;14.43;;
59468;SDS011;45277;52.768;18.262;2023-11-18T05:05:39;23.75;;;11.65;;
59468;SDS011;45277;52.768;18.262;2023-11-18T05:07:10;24.15;;;13.25;;
59468;SDS011;45277;52.768;18.262;2023-11-18T05:08:42;26.75;;;13.10;;
59468;SDS011;45277;52.768;18.262;2023-11-18T05:10:13;26.90;;;14.70;;
59468;SDS011;45277;52.768;18.262;2023-11-18T05:11:45;29.48;;;16.08;;
59468;SDS011;45277;52.768;18.262;2023-11-18T05:13:16;29.67;;;15.10;;
59468;SDS011;45277;52.768;18.262;2023-11-18T05:14:49;34.65;;;15.77;;
59468;SDS011;45277;52.768;18.262;2023-11-18T05:16:20;26.02;;;13.95;;
59468;SDS011;45277;52.768;18.262;2023-11-18T05:17:52;22.27;;;12.38;;
59468;SDS011;45277;52.768;18.262;2023-11-18T05:19:25;21.08;;;12.98;;
59468;SDS011;45277;52.768;18.262;2023-11-18T05:20:56;21.02;;;11.90;;
59468;SDS011;45277;52.768;18.262;2023-11-18T05:22:28;28.52;;;13.32;;
59468;SDS011;45277;52.768;18.262;2023-11-18T05:24:00;24.05;;;12.85;;
59468;SDS011;45277;52.768;18.262;2023-11-18T05:25:31;22.25;;;12.07;;
59468;SDS011;45277;52.768;18.262;2023-11-18T05:27:03;20.83;;;10.88;;
59468;SDS011;45277;52.768;18.262;2023-11-18T05:28:35;21.60;;;11.00;;
59468;SDS011;45277;52.768;18.262;2023-11-18T05:30:10;19.73;;;10.98;;
59468;SDS011;45277;52.768;18.262;2023-11-18T05:31:41;24.40;;;12.48;;
59468;SDS011;45277;52.768;18.262;2023-11-18T05:33:13;19.35;;;9.93;;
59468;SDS011;45277;52.768;18.262;2023-11-18T05:34:49;22.75;;;12.45;;
59468;SDS011;45277;52.768;18.262;2023-11-18T05:36:24;24.25;;;12.57;;
59468;SDS011;45277;52.768;18.262;2023-11-18T05:37:58;25.20;;;13.00;;
59468;SDS011;45277;52.768;18.262;2023-11-18T05:39:30;24.63;;;12.85;;
59468;SDS011;45277;52.768;18.262;2023-11-18T05:41:01;23.60;;;11.05;;
59468;SDS011;45277;52.768;18.262;2023-11-18T05:42:34;25.77;;;13.60;;
59468;SDS011;45277;52.768;18.262;2023-11-18T05:44:07;23.85;;;12.38;;
59468;SDS011;45277;52.768;18.262;2023-11-18T05:45:40;21.73;;;11.60;;
59468;SDS011;45277;52.768;18.262;2023-11-18T05:47:31;25.08;;;12.25;;
59468;SDS011;45277;52.768;18.262;2023-11-18T05:49:03;24.80;;;13.05;;
59468;SDS011;45277;52.768;18.262;2023-11-18T05:50:38;22.65;;;12.18;;
59468;SDS011;45277;52.768;18.262;2023-11-18T05:52:10;26.20;;;12.88;;
59468;SDS011;45277;52.768;18.262;2023-11-18T05:53:42;24.42;;;11.52;;
59468;SDS011;45277;52.768;18.262;2023-11-18T05:55:17;27.40;;;12.85;;
59468;SDS011;45277;52.768;18.262;2023-11-18T05:56:49;26.13;;;13.63;;
59468;SDS011;45277;52.768;18.262;2023-11-18T05:58:20;27.00;;;13.02;;
59468;SDS011;45277;52.768;18.262;2023-11-18T05:59:52;20.92;;;11.73;;
59468;SDS011;45277;52.768;18.262;2023-11-18T06:01:25;23.45;;;11.32;;
59468;SDS011;45277;52.768;18.262;2023-11-18T06:02:59;25.08;;;12.25;;
59468;SDS011;45277;52.768;18.262;2023-11-18T06:04:31;27.20;;;13.23;;
59468;SDS011;45277;52.768;18.262;2023-11-18T06:06:02;23.13;;;12.20;;
59468;SDS011;45277;52.768;18.262;2023-11-18T06:07:37;22.80;;;11.43;;
59468;SDS011;45277;52.768;18.262;2023-11-18T06:09:10;19.42;;;11.07;;
59468;SDS011;45277;52.768;18.262;2023-11-18T06:10:51;18.65;;;10.70;;
59468;SDS011;45277;52.768;18.262;2023-11-18T06:12:26;20.58;;;11.98;;
59468;SDS011;45277;52.768;18.262;2023-11-18T06:13:58;17.50;;;10.73;;
59468;SDS011;45277;52.768;18.262;2023-11-18T06:15:29;18.63;;;9.35;;
59468;SDS011;45277;52.768;18.262;2023-11-18T06:17:01;16.80;;;8.75;;
59468;SDS011;45277;52.768;18.262;2023-11-18T06:18:32;17.40;;;10.50;;
59468;SDS011;45277;52.768;18.262;2023-11-18T06:20:04;20.58;;;12.30;;
59468;SDS011;45277;52.768;18.262;2023-11-18T06:21:36;22.95;;;12.40;;
59468;SDS011;45277;52.768;18.262;2023-11-18T06:23:08;25.55;;;13.15;;
59468;SDS011;45277;52.768;18.262;2023-11-18T06:24:41;19.98;;;11.45;;
59468;SDS011;45277;52.768;18.262;2023-11-18T06:26:13;16.35;;;8.30;;
59468;SDS011;45277;52.768;18.262;2023-11-18T06:27:45;18.70;;;10.48;;
59468;SDS011;45277;52.768;18.262;2023-11-18T06:29:18;21.00;;;10.57;;
59468;SDS011;45277;52.768;18.262;2023-11-18T06:30:49;24.35;;;13.23;;
59468;SDS011;45277;52.768;18.262;2023-11-18T06:32:21;20.95;;;12.07;;
59468;SDS011;45277;52.768;18.262;2023-11-18T06:33:56;19.45;;;10.88;;
59468;SDS011;45277;52.768;18.262;2023-11-18T06:35:28;18.65;;;10.48;;
59468;SDS011;45277;52.768;18.262;2023-11-18T06:37:00;19.50;;;9.73;;
59468;SDS011;45277;52.768;18.262;2023-11-18T06:38:32;26.30;;;13.05;;
59468;SDS011;45277;52.768;18.262;2023-11-18T06:40:05;25.55;;;12.93;;
59468;SDS011;45277;52.768;18.262;2023-11-18T06:41:46;16.63;;;9.18;;
59468;SDS011;45277;52.768;18.262;2023-11-18T06:43:22;21.98;;;12.20;;
59468;SDS011;45277;52.768;18.262;2023-11-18T06:44:53;24.20;;;11.43;;
59468;SDS011;45277;52.768;18.262;2023-11-18T06:46:26;22.20;;;12.15;;
59468;SDS011;45277;52.768;18.262;2023-11-18T06:48:04;24.42;;;12.48;;
59468;SDS011;45277;52.768;18.262;2023-11-18T06:49:36;25.08;;;12.63;;
59468;SDS011;45277;52.768;18.262;2023-11-18T06:51:07;27.55;;;13.75;;
59468;SDS011;45277;52.768;18.262;2023-11-18T06:52:39;24.45;;;13.00;;
59468;SDS011;45277;52.768;18.262;2023-11-18T06:54:12;23.42;;;12.77;;
59468;SDS011;45277;52.768;18.262;2023-11-18T06:55:44;24.90;;;13.65;;
59468;SDS011;45277;52.768;18.262;2023-11-18T06:57:15;24.38;;;12.80;;
59468;SDS011;45277;52.768;18.262;2023-11-18T06:58:47;24.45;;;13.25;;
59468;SDS011;45277;52.768;18.262;2023-11-18T07:00:18;20.73;;;11.82;;
59468;SDS011;45277;52.768;18.262;2023-11-18T07:01:51;23.67;;;12.80;;
59468;SDS011;45277;52.768;18.262;2023-11-18T07:03:22;20.05;;;10.02;;
59468;SDS011;45277;52.768;18.262;2023-11-18T07:04:54;19.10;;;9.73;;
59468;SDS011;45277;52.768;18.262;2023-11-18T07:06:26;22.30;;;11.90;;
59468;SDS011;45277;52.768;18.262;2023-11-18T07:07:57;24.45;;;12.43;;
59468;SDS011;45277;52.768;18.262;2023-11-18T07:09:29;21.67;;;11.48;;
59468;SDS011;45277;52.768;18.262;2023-11-18T07:11:06;23.20;;;13.40;;
59468;SDS011;45277;52.768;18.262;2023-11-18T07:12:38;18.20;;;10.02;;
59468;SDS011;45277;52.768;18.262;2023-11-18T07:14:11;24.48;;;14.30;;
59468;SDS011;45277;52.768;18.262;2023-11-18T07:15:45;22.58;;;12.18;;
59468;SDS011;45277;52.768;18.262;2023-11-18T07:17:17;24.48;;;12.52;;
59468;SDS011;45277;52.768;18.262;2023-11-18T07:18:49;29.85;;;14.63;;
59468;SDS011;45277;52.768;18.262;2023-11-18T07:20:21;33.53;;;16.83;;
59468;SDS011;45277;52.768;18.262;2023-11-18T07:21:52;31.00;;;17.15;;
59468;SDS011;45277;52.768;18.262;2023-11-18T07:23:24;33.25;;;17.50;;
59468;SDS011;45277;52.768;18.262;2023-11-18T07:24:56;32.22;;;16.10;;
59468;SDS011;45277;52.768;18.262;2023-11-18T07:26:28;35.80;;;18.05;;
59468;SDS011;45277;52.768;18.262;2023-11-18T07:27:59;33.42;;;16.90;;
59468;SDS011;45277;52.768;18.262;2023-11-18T07:29:31;47.08;;;23.27;;
59468;SDS011;45277;52.768;18.262;2023-11-18T07:31:03;38.42;;;19.63;;
59468;SDS011;45277;52.768;18.262;2023-11-18T07:32:35;33.13;;;16.75;;
59468;SDS011;45277;52.768;18.262;2023-11-18T07:34:07;37.38;;;17.20;;
59468;SDS011;45277;52.768;18.262;2023-11-18T07:35:38;40.08;;;19.08;;
59468;SDS011;45277;52.768;18.262;2023-11-18T07:37:09;36.50;;;19.73;;
59468;SDS011;45277;52.768;18.262;2023-11-18T07:38:43;31.20;;;16.63;;
59468;SDS011;45277;52.768;18.262;2023-11-18T07:40:15;23.63;;;13.68;;
59468;SDS011;45277;52.768;18.262;2023-11-18T07:41:52;29.65;;;15.45;;
59468;SDS011;45277;52.768;18.262;2023-11-18T07:43:24;30.85;;;15.18;;
59468;SDS011;45277;52.768;18.262;2023-11-18T07:44:57;31.38;;;14.80;;
59468;SDS011;45277;52.768;18.262;2023-11-18T07:46:28;33.80;;;16.85;;
59468;SDS011;45277;52.768;18.262;2023-11-18T07:48:01;26.70;;;15.13;;
59468;SDS011;45277;52.768;18.262;2023-11-18T07:49:36;26.75;;;14.68;;
59468;SDS011;45277;52.768;18.262;2023-11-18T07:51:08;26.90;;;12.82;;
59468;SDS011;45277;52.768;18.262;2023-11-18T07:52:40;18.02;;;11.95;;
59468;SDS011;45277;52.768;18.262;2023-11-18T07:54:11;28.90;;;16.25;;
59468;SDS011;45277;52.768;18.262;2023-11-18T07:55:42;27.25;;;15.18;;
59468;SDS011;45277;52.768;18.262;2023-11-18T07:57:15;26.30;;;15.20;;
59468;SDS011;45277;52.768;18.262;2023-11-18T07:58:47;25.75;;;14.55;;
59468;SDS011;45277;52.768;18.262;2023-11-18T08:00:18;28.02;;;14.25;;
59468;SDS011;45277;52.768;18.262;2023-11-18T08:01:50;27.88;;;14.75;;
59468;SDS011;45277;52.768;18.262;2023-11-18T08:03:21;25.08;;;14.23;;
59468;SDS011;45277;52.768;18.262;2023-11-18T08:04:53;22.10;;;12.93;;
59468;SDS011;45277;52.768;18.262;2023-11-18T08:06:24;20.85;;;12.05;;
59468;SDS011;45277;52.768;18.262;2023-11-18T08:07:56;22.02;;;12.50;;
59468;SDS011;45277;52.768;18.262;2023-11-18T08:09:30;25.48;;;13.68;;
59468;SDS011;45277;52.768;18.262;2023-11-18T08:11:02;31.08;;;14.23;;
59468;SDS011;45277;52.768;18.262;2023-11-18T08:12:37;24.42;;;13.38;;
59468;SDS011;45277;52.768;18.262;2023-11-18T08:14:08;24.10;;;12.90;;
59468;SDS011;45277;52.768;18.262;2023-11-18T08:15:40;20.63;;;12.63;;
59468;SDS011;45277;52.768;18.262;2023-11-18T08:17:12;24.05;;;13.15;;
59468;SDS011;45277;52.768;18.262;2023-11-18T08:18:44;24.30;;;13.98;;
59468;SDS011;45277;52.768;18.262;2023-11-18T08:20:16;30.08;;;14.40;;
59468;SDS011;45277;52.768;18.262;2023-11-18T08:21:47;22.42;;;12.82;;
59468;SDS011;45277;52.768;18.262;2023-11-18T08:23:18;26.05;;;13.93;;
59468;SDS011;45277;52.768;18.262;2023-11-18T08:24:50;28.88;;;15.05;;
59468;SDS011;45277;52.768;18.262;2023-11-18T08:26:22;26.73;;;13.55;;
59468;SDS011;45277;52.768;18.262;2023-11-18T08:27:53;24.60;;;13.30;;
59468;SDS011;45277;52.768;18.262;2023-11-18T08:29:25;21.70;;;12.98;;
59468;SDS011;45277;52.768;18.262;2023-11-18T08:31:01;22.05;;;12.85;;
59468;SDS011;45277;52.768;18.262;2023-11-18T08:32:32;23.08;;;13.02;;
59468;SDS011;45277;52.768;18.262;2023-11-18T08:34:04;24.08;;;13.48;;
59468;SDS011;45277;52.768;18.262;2023-11-18T08:35:36;21.98;;;13.18;;
59468;SDS011;45277;52.768;18.262;2023-11-18T08:37:08;23.27;;;13.23;;
59468;SDS011;45277;52.768;18.262;2023-11-18T08:38:40;21.50;;;12.85;;
59468;SDS011;45277;52.768;18.262;2023-11-18T08:40:14;22.48;;;12.90;;
59468;SDS011;45277;52.768;18.262;2023-11-18T08:41:48;30.02;;;13.57;;
59468;SDS011;45277;52.768;18.262;2023-11-18T08:43:21;24.00;;;13.38;;
59468;SDS011;45277;52.768;18.262;2023-11-18T08:44:53;23.95;;;13.73;;
59468;SDS011;45277;52.768;18.262;2023-11-18T08:46:26;27.40;;;14.23;;
59468;SDS011;45277;52.768;18.262;2023-11-18T08:47:59;26.48;;;14.50;;
59468;SDS011;45277;52.768;18.262;2023-11-18T08:51:10;24.50;;;13.40;;
59468;SDS011;45277;52.768;18.262;2023-11-18T08:52:44;22.80;;;12.93;;
59468;SDS011;45277;52.768;18.262;2023-11-18T08:54:17;22.85;;;12.38;;
59468;SDS011;45277;52.768;18.262;2023-11-18T08:55:53;23.38;;;14.63;;